Impacts METAR Board INFO
IDs:

KCVG - Cincinnati Intl, KY, US

Updated at: 0233 UTC 12 Dec 2017
Potential Impact None Slight Moderate High
Time11/14Z 11/15Z 11/16Z 11/17Z 11/18Z 11/19Z 11/20Z 11/21Z 11/22Z 11/23Z 12/00Z 12/01Z 12/02Z
VIS8 9 10 10 10 10 10 10 10 10 10 10 10
CIG140 150 180 200 160 230 150 150 150 150 150 -- --
CoverOVCBKNBKNBKNBKNBKNBKNOVCBKNBKNOVCFEWFEW
FltCatVFRVFRVFRVFRVFRVFRVFRVFRVFRVFRVFRVFRVFR
WX--------------------------
WDir180180200220210210180170160180180200230
WSpd4 4 8 11 9 10 7 10 6 5 6 11 14
WGst-- -- -- -- -- -- -- -- -- -- -- -- --
Raw hourly METARs
KCVG 111352Z 18004KT 8SM SCT100 OVC140 M03/M04 A3005 RMK AO2 SLP183 T10281039
KCVG 111452Z 18004KT 9SM SCT090 BKN150 M01/M03 A3004 RMK AO2 SLP178 I3000 T10111033 58013
KCVG 111552Z 20008KT 10SM SCT120 BKN180 01/M03 A3001 RMK AO2 SLP165 T00111033
KCVG 111652Z 22011KT 10SM FEW130 BKN200 03/M03 A2999 RMK AO2 SLP159 T00281028
KCVG 111752Z 21009KT 10SM BKN160 04/M02 A2992 RMK AO2 SLP137 I6000 T00441022 10044 21072 58038
KCVG 111852Z 21010KT 10SM FEW110 SCT150 BKN230 07/M02 A2985 RMK AO2 SLP113 VIRGA NW-N T00671017
KCVG 111952Z 18007KT 10SM BKN150 07/M02 A2981 RMK AO2 SLP099 VIRGA SW T00721017
KCVG 112052Z 17010KT 10SM SCT110 OVC150 07/M01 A2977 RMK AO2 SLP084 T00721011 56051
KCVG 112152Z 16006KT 10SM BKN150 BKN250 07/M01 A2973 RMK AO2 SLP072 T00721011
KCVG 112252Z 18005KT 10SM BKN150 05/M01 A2973 RMK AO2 SLP072 T00501011
KCVG 112352Z 18006KT 10SM BKN150 OVC200 05/M02 A2970 RMK AO2 SLP064 T00501017 10078 20044 56022
KCVG 120052Z 20011KT 10SM FEW250 06/M01 A2968 RMK AO2 SLP055 T00611011
KCVG 120152Z 23014KT 10SM FEW100 08/M01 A2969 RMK AO2 SLP055 T00781006